Portada
METAR-TAF:

METAR-TAF

Aeroports :

Moree, Austràlia

latitud: 29-29-56S, longitud: 149-50-41E, altitud: 214 m

Observació

L'informe es va fer fa 1 hora i 8 minuts, a les 06:00 UTC
Vent 9 kt del Nord/Nord-Est, variant entre Nord/Nord-Oest i Est/Nord-Est
Temperatura 36°C
Humitat 31%
Pressió 1013 hPa
Visibilitat 10 km o més
Núvols disperses a una alçada de 7200 ft

METAR: YMOR 030600Z AUTO 03009KT 340V070 9999 // SCT072 36/16 Q1013

Hora: 18:08 (07:08 UTC)


TAF: manca

Observacions i pronòstics meteorològics de més de 4000 aeroports (METAR i TAF).

Les estacions disponibles són els punts grocs i vermells al mapa.

Posi el ratolí al punt desitjat per veure el nom de l'estació.

Feu clic per veure les observacions i els pronòstics meteorològics.

Per canviar el mapa: feu clic els botons verds amb una creu de color negre per apropar; al botó verd amb un guió per allunyar la imatge; o en les fletxes verdes per a mapes adjacents.


METAR-TAF: